sensor_id;sensor_type;location;lat;lon;timestamp;P1;durP1;ratioP1;P2;durP2;ratioP2
49458;SDS011;35354;51.296;16.924;2022-12-16T00:01:36;131.55;;;68.47;;
49458;SDS011;35354;51.296;16.924;2022-12-16T00:04:02;126.40;;;67.13;;
49458;SDS011;35354;51.296;16.924;2022-12-16T00:06:31;119.18;;;64.55;;
49458;SDS011;35354;51.296;16.924;2022-12-16T00:08:58;108.55;;;56.33;;
49458;SDS011;35354;51.296;16.924;2022-12-16T00:11:23;120.53;;;66.68;;
49458;SDS011;35354;51.296;16.924;2022-12-16T00:13:49;131.23;;;72.07;;
49458;SDS011;35354;51.296;16.924;2022-12-16T00:16:15;193.90;;;107.78;;
49458;SDS011;35354;51.296;16.924;2022-12-16T00:18:42;201.48;;;108.30;;
49458;SDS011;35354;51.296;16.924;2022-12-16T00:21:07;161.52;;;92.53;;
49458;SDS011;35354;51.296;16.924;2022-12-16T00:23:34;148.50;;;87.78;;
49458;SDS011;35354;51.296;16.924;2022-12-16T00:26:00;117.22;;;65.10;;
49458;SDS011;35354;51.296;16.924;2022-12-16T00:28:26;105.63;;;55.75;;
49458;SDS011;35354;51.296;16.924;2022-12-16T00:30:52;99.63;;;53.60;;
49458;SDS011;35354;51.296;16.924;2022-12-16T00:33:19;93.00;;;49.85;;
49458;SDS011;35354;51.296;16.924;2022-12-16T00:35:46;84.07;;;47.00;;
49458;SDS011;35354;51.296;16.924;2022-12-16T00:38:12;86.53;;;48.88;;
49458;SDS011;35354;51.296;16.924;2022-12-16T00:40:38;92.57;;;51.78;;
49458;SDS011;35354;51.296;16.924;2022-12-16T00:43:04;98.65;;;54.58;;
49458;SDS011;35354;51.296;16.924;2022-12-16T00:45:29;96.45;;;53.45;;
49458;SDS011;35354;51.296;16.924;2022-12-16T00:47:55;95.68;;;51.72;;
49458;SDS011;35354;51.296;16.924;2022-12-16T00:50:20;100.72;;;54.28;;
49458;SDS011;35354;51.296;16.924;2022-12-16T00:52:46;110.40;;;58.10;;
49458;SDS011;35354;51.296;16.924;2022-12-16T00:55:12;126.07;;;65.20;;
49458;SDS011;35354;51.296;16.924;2022-12-16T00:57:38;124.57;;;64.85;;
49458;SDS011;35354;51.296;16.924;2022-12-16T01:00:03;128.18;;;62.75;;
49458;SDS011;35354;51.296;16.924;2022-12-16T01:02:30;94.88;;;50.55;;
49458;SDS011;35354;51.296;16.924;2022-12-16T01:04:55;79.65;;;46.92;;
49458;SDS011;35354;51.296;16.924;2022-12-16T01:07:21;77.72;;;42.55;;
49458;SDS011;35354;51.296;16.924;2022-12-16T01:09:46;82.10;;;45.75;;
49458;SDS011;35354;51.296;16.924;2022-12-16T01:12:11;74.45;;;41.70;;
49458;SDS011;35354;51.296;16.924;2022-12-16T01:14:37;71.15;;;41.63;;
49458;SDS011;35354;51.296;16.924;2022-12-16T01:17:02;75.75;;;42.13;;
49458;SDS011;35354;51.296;16.924;2022-12-16T01:19:27;75.43;;;40.42;;
49458;SDS011;35354;51.296;16.924;2022-12-16T01:21:53;75.53;;;41.45;;
49458;SDS011;35354;51.296;16.924;2022-12-16T01:24:18;75.30;;;41.85;;
49458;SDS011;35354;51.296;16.924;2022-12-16T01:26:43;77.60;;;41.58;;
49458;SDS011;35354;51.296;16.924;2022-12-16T01:29:09;66.38;;;39.10;;
49458;SDS011;35354;51.296;16.924;2022-12-16T01:31:34;68.00;;;39.20;;
49458;SDS011;35354;51.296;16.924;2022-12-16T01:33:59;64.80;;;40.22;;
49458;SDS011;35354;51.296;16.924;2022-12-16T01:36:24;66.40;;;39.30;;
49458;SDS011;35354;51.296;16.924;2022-12-16T01:38:50;63.28;;;36.65;;
49458;SDS011;35354;51.296;16.924;2022-12-16T01:41:16;66.63;;;37.83;;
49458;SDS011;35354;51.296;16.924;2022-12-16T01:43:43;63.13;;;36.67;;
49458;SDS011;35354;51.296;16.924;2022-12-16T01:48:47;76.40;;;42.13;;
49458;SDS011;35354;51.296;16.924;2022-12-16T01:56:38;77.25;;;43.85;;
49458;SDS011;35354;51.296;16.924;2022-12-16T01:59:08;82.60;;;45.95;;
49458;SDS011;35354;51.296;16.924;2022-12-16T02:01:35;76.55;;;43.47;;
49458;SDS011;35354;51.296;16.924;2022-12-16T02:04:02;77.70;;;43.78;;
49458;SDS011;35354;51.296;16.924;2022-12-16T02:06:31;79.43;;;45.75;;
49458;SDS011;35354;51.296;16.924;2022-12-16T02:08:58;83.05;;;43.90;;
49458;SDS011;35354;51.296;16.924;2022-12-16T02:14:34;83.65;;;45.53;;
49458;SDS011;35354;51.296;16.924;2022-12-16T02:31:24;111.57;;;55.25;;
49458;SDS011;35354;51.296;16.924;2022-12-16T02:34:18;95.78;;;50.42;;
49458;SDS011;35354;51.296;16.924;2022-12-16T02:37:04;105.97;;;53.83;;
49458;SDS011;35354;51.296;16.924;2022-12-16T02:39:36;96.57;;;52.58;;
49458;SDS011;35354;51.296;16.924;2022-12-16T02:44:44;99.00;;;54.80;;
49458;SDS011;35354;51.296;16.924;2022-12-16T02:47:18;99.10;;;54.85;;
49458;SDS011;35354;51.296;16.924;2022-12-16T02:49:45;99.72;;;55.45;;
49458;SDS011;35354;51.296;16.924;2022-12-16T02:52:13;99.57;;;56.83;;
49458;SDS011;35354;51.296;16.924;2022-12-16T02:54:39;103.38;;;54.40;;
49458;SDS011;35354;51.296;16.924;2022-12-16T03:00:00;114.97;;;58.85;;
49458;SDS011;35354;51.296;16.924;2022-12-16T03:02:37;108.10;;;58.55;;
49458;SDS011;35354;51.296;16.924;2022-12-16T03:05:08;111.45;;;58.28;;
49458;SDS011;35354;51.296;16.924;2022-12-16T03:07:39;104.65;;;57.22;;
49458;SDS011;35354;51.296;16.924;2022-12-16T03:10:07;100.00;;;53.15;;
49458;SDS011;35354;51.296;16.924;2022-12-16T03:12:39;100.63;;;54.67;;
49458;SDS011;35354;51.296;16.924;2022-12-16T03:15:07;98.07;;;54.22;;
49458;SDS011;35354;51.296;16.924;2022-12-16T03:17:34;101.65;;;54.75;;
49458;SDS011;35354;51.296;16.924;2022-12-16T03:20:06;96.15;;;53.25;;
49458;SDS011;35354;51.296;16.924;2022-12-16T03:22:36;97.75;;;52.97;;
49458;SDS011;35354;51.296;16.924;2022-12-16T03:25:06;104.10;;;55.05;;
49458;SDS011;35354;51.296;16.924;2022-12-16T03:27:34;103.22;;;55.85;;
49458;SDS011;35354;51.296;16.924;2022-12-16T03:30:10;100.03;;;54.30;;
49458;SDS011;35354;51.296;16.924;2022-12-16T03:35:16;106.00;;;56.78;;
49458;SDS011;35354;51.296;16.924;2022-12-16T03:37:46;131.23;;;66.60;;
49458;SDS011;35354;51.296;16.924;2022-12-16T03:40:14;118.97;;;63.50;;
49458;SDS011;35354;51.296;16.924;2022-12-16T03:42:40;109.43;;;58.47;;
49458;SDS011;35354;51.296;16.924;2022-12-16T03:45:07;102.50;;;57.33;;
49458;SDS011;35354;51.296;16.924;2022-12-16T03:47:38;112.18;;;61.97;;
49458;SDS011;35354;51.296;16.924;2022-12-16T03:50:04;105.45;;;57.40;;
49458;SDS011;35354;51.296;16.924;2022-12-16T03:52:29;104.45;;;59.70;;
49458;SDS011;35354;51.296;16.924;2022-12-16T03:54:55;100.32;;;57.00;;
49458;SDS011;35354;51.296;16.924;2022-12-16T03:57:20;103.55;;;57.70;;
49458;SDS011;35354;51.296;16.924;2022-12-16T03:59:46;98.78;;;59.22;;
49458;SDS011;35354;51.296;16.924;2022-12-16T04:02:11;97.47;;;56.58;;
49458;SDS011;35354;51.296;16.924;2022-12-16T04:04:36;110.18;;;61.85;;
49458;SDS011;35354;51.296;16.924;2022-12-16T04:07:01;100.95;;;57.10;;
49458;SDS011;35354;51.296;16.924;2022-12-16T04:09:45;104.05;;;58.13;;
49458;SDS011;35354;51.296;16.924;2022-12-16T04:12:11;109.63;;;57.47;;
49458;SDS011;35354;51.296;16.924;2022-12-16T04:14:55;102.80;;;56.90;;
49458;SDS011;35354;51.296;16.924;2022-12-16T04:17:38;98.78;;;57.50;;
49458;SDS011;35354;51.296;16.924;2022-12-16T04:20:25;106.25;;;59.75;;
49458;SDS011;35354;51.296;16.924;2022-12-16T04:23:13;104.57;;;57.33;;
49458;SDS011;35354;51.296;16.924;2022-12-16T04:25:57;103.72;;;56.95;;
49458;SDS011;35354;51.296;16.924;2022-12-16T04:28:23;105.40;;;57.42;;
49458;SDS011;35354;51.296;16.924;2022-12-16T04:30:48;98.13;;;56.33;;
49458;SDS011;35354;51.296;16.924;2022-12-16T04:33:13;110.32;;;56.83;;
49458;SDS011;35354;51.296;16.924;2022-12-16T04:35:58;105.93;;;56.88;;
49458;SDS011;35354;51.296;16.924;2022-12-16T04:38:42;103.40;;;57.25;;
49458;SDS011;35354;51.296;16.924;2022-12-16T04:41:26;105.10;;;57.78;;
49458;SDS011;35354;51.296;16.924;2022-12-16T04:44:10;104.40;;;55.83;;
49458;SDS011;35354;51.296;16.924;2022-12-16T04:46:54;120.22;;;70.78;;
49458;SDS011;35354;51.296;16.924;2022-12-16T04:49:38;157.90;;;94.45;;
49458;SDS011;35354;51.296;16.924;2022-12-16T04:52:22;412.98;;;266.05;;
49458;SDS011;35354;51.296;16.924;2022-12-16T04:55:06;126.85;;;71.90;;
49458;SDS011;35354;51.296;16.924;2022-12-16T04:57:55;116.82;;;69.32;;
49458;SDS011;35354;51.296;16.924;2022-12-16T05:00:40;109.90;;;66.65;;
49458;SDS011;35354;51.296;16.924;2022-12-16T05:03:25;154.52;;;94.78;;
49458;SDS011;35354;51.296;16.924;2022-12-16T05:06:10;166.35;;;99.00;;
49458;SDS011;35354;51.296;16.924;2022-12-16T05:08:54;111.75;;;60.03;;
49458;SDS011;35354;51.296;16.924;2022-12-16T05:11:38;132.30;;;81.80;;
49458;SDS011;35354;51.296;16.924;2022-12-16T05:14:22;122.82;;;68.20;;
49458;SDS011;35354;51.296;16.924;2022-12-16T05:17:05;131.02;;;77.32;;
49458;SDS011;35354;51.296;16.924;2022-12-16T05:19:57;109.53;;;59.28;;
49458;SDS011;35354;51.296;16.924;2022-12-16T05:22:41;114.45;;;64.28;;
49458;SDS011;35354;51.296;16.924;2022-12-16T05:25:25;106.55;;;58.75;;
49458;SDS011;35354;51.296;16.924;2022-12-16T05:28:09;137.05;;;76.00;;
49458;SDS011;35354;51.296;16.924;2022-12-16T05:30:53;116.63;;;66.63;;
49458;SDS011;35354;51.296;16.924;2022-12-16T05:33:37;130.18;;;72.13;;
49458;SDS011;35354;51.296;16.924;2022-12-16T05:36:20;169.90;;;89.90;;
49458;SDS011;35354;51.296;16.924;2022-12-16T05:39:04;169.32;;;88.00;;
49458;SDS011;35354;51.296;16.924;2022-12-16T05:41:48;162.25;;;86.15;;
49458;SDS011;35354;51.296;16.924;2022-12-16T05:44:32;166.85;;;82.97;;
49458;SDS011;35354;51.296;16.924;2022-12-16T05:47:16;226.65;;;107.10;;
49458;SDS011;35354;51.296;16.924;2022-12-16T05:50:00;248.57;;;120.75;;
49458;SDS011;35354;51.296;16.924;2022-12-16T05:52:47;118.80;;;64.80;;
49458;SDS011;35354;51.296;16.924;2022-12-16T05:55:32;178.50;;;93.35;;
49458;SDS011;35354;51.296;16.924;2022-12-16T05:58:16;122.95;;;63.90;;
49458;SDS011;35354;51.296;16.924;2022-12-16T06:01:00;165.48;;;84.18;;
49458;SDS011;35354;51.296;16.924;2022-12-16T06:03:44;105.88;;;60.15;;
49458;SDS011;35354;51.296;16.924;2022-12-16T06:06:28;105.32;;;60.78;;
49458;SDS011;35354;51.296;16.924;2022-12-16T06:09:12;124.72;;;65.25;;
49458;SDS011;35354;51.296;16.924;2022-12-16T06:11:56;111.47;;;60.47;;
49458;SDS011;35354;51.296;16.924;2022-12-16T06:14:40;120.20;;;66.00;;
49458;SDS011;35354;51.296;16.924;2022-12-16T06:17:34;113.25;;;62.20;;
49458;SDS011;35354;51.296;16.924;2022-12-16T06:20:18;116.13;;;63.20;;
49458;SDS011;35354;51.296;16.924;2022-12-16T06:23:02;126.82;;;68.85;;
49458;SDS011;35354;51.296;16.924;2022-12-16T06:25:46;128.98;;;71.88;;
49458;SDS011;35354;51.296;16.924;2022-12-16T06:28:40;134.20;;;72.57;;
49458;SDS011;35354;51.296;16.924;2022-12-16T06:31:24;138.80;;;74.97;;
49458;SDS011;35354;51.296;16.924;2022-12-16T06:34:08;125.18;;;68.63;;
49458;SDS011;35354;51.296;16.924;2022-12-16T06:36:53;130.82;;;71.72;;
49458;SDS011;35354;51.296;16.924;2022-12-16T06:39:36;144.80;;;76.00;;
49458;SDS011;35354;51.296;16.924;2022-12-16T06:42:20;134.10;;;73.57;;
49458;SDS011;35354;51.296;16.924;2022-12-16T06:45:04;140.70;;;78.60;;
49458;SDS011;35354;51.296;16.924;2022-12-16T06:47:49;148.82;;;81.40;;
49458;SDS011;35354;51.296;16.924;2022-12-16T06:50:33;146.80;;;78.75;;
49458;SDS011;35354;51.296;16.924;2022-12-16T06:53:17;143.82;;;78.90;;
49458;SDS011;35354;51.296;16.924;2022-12-16T06:56:01;132.75;;;75.60;;
49458;SDS011;35354;51.296;16.924;2022-12-16T06:58:55;152.05;;;79.75;;
49458;SDS011;35354;51.296;16.924;2022-12-16T07:01:39;134.63;;;71.60;;
49458;SDS011;35354;51.296;16.924;2022-12-16T07:04:23;144.30;;;76.78;;
49458;SDS011;35354;51.296;16.924;2022-12-16T07:07:07;150.48;;;79.38;;
49458;SDS011;35354;51.296;16.924;2022-12-16T07:09:50;128.88;;;70.18;;
49458;SDS011;35354;51.296;16.924;2022-12-16T07:12:34;130.95;;;70.82;;
49458;SDS011;35354;51.296;16.924;2022-12-16T07:15:18;120.18;;;67.25;;
49458;SDS011;35354;51.296;16.924;2022-12-16T07:18:02;132.80;;;69.95;;
49458;SDS011;35354;51.296;16.924;2022-12-16T07:20:46;135.20;;;71.35;;
49458;SDS011;35354;51.296;16.924;2022-12-16T07:23:30;136.93;;;72.75;;
49458;SDS011;35354;51.296;16.924;2022-12-16T07:26:14;124.55;;;67.70;;
49458;SDS011;35354;51.296;16.924;2022-12-16T07:28:57;121.57;;;68.03;;
49458;SDS011;35354;51.296;16.924;2022-12-16T07:31:42;124.25;;;70.03;;
49458;SDS011;35354;51.296;16.924;2022-12-16T07:34:25;135.48;;;71.65;;
49458;SDS011;35354;51.296;16.924;2022-12-16T07:37:09;132.68;;;69.32;;
49458;SDS011;35354;51.296;16.924;2022-12-16T07:39:53;115.03;;;66.18;;
49458;SDS011;35354;51.296;16.924;2022-12-16T07:42:39;134.13;;;71.30;;
49458;SDS011;35354;51.296;16.924;2022-12-16T07:45:24;215.88;;;98.13;;
49458;SDS011;35354;51.296;16.924;2022-12-16T07:48:08;165.82;;;85.32;;
49458;SDS011;35354;51.296;16.924;2022-12-16T07:50:52;144.60;;;84.97;;
49458;SDS011;35354;51.296;16.924;2022-12-16T07:53:36;130.57;;;78.90;;
49458;SDS011;35354;51.296;16.924;2022-12-16T07:56:19;413.83;;;158.75;;
49458;SDS011;35354;51.296;16.924;2022-12-16T07:59:03;205.23;;;92.45;;
49458;SDS011;35354;51.296;16.924;2022-12-16T08:01:47;121.75;;;68.90;;
49458;SDS011;35354;51.296;16.924;2022-12-16T08:04:31;126.72;;;69.57;;
49458;SDS011;35354;51.296;16.924;2022-12-16T08:07:15;137.85;;;73.75;;
49458;SDS011;35354;51.296;16.924;2022-12-16T08:09:59;121.93;;;70.40;;
49458;SDS011;35354;51.296;16.924;2022-12-16T08:12:43;134.70;;;74.78;;
49458;SDS011;35354;51.296;16.924;2022-12-16T08:15:27;125.47;;;70.53;;
49458;SDS011;35354;51.296;16.924;2022-12-16T08:18:11;123.60;;;72.30;;
49458;SDS011;35354;51.296;16.924;2022-12-16T08:20:55;127.97;;;73.63;;
49458;SDS011;35354;51.296;16.924;2022-12-16T08:23:39;122.47;;;69.88;;
49458;SDS011;35354;51.296;16.924;2022-12-16T08:26:23;131.93;;;70.55;;
49458;SDS011;35354;51.296;16.924;2022-12-16T08:29:07;124.93;;;73.07;;
49458;SDS011;35354;51.296;16.924;2022-12-16T08:31:51;131.43;;;78.25;;
49458;SDS011;35354;51.296;16.924;2022-12-16T08:34:35;164.93;;;86.15;;
49458;SDS011;35354;51.296;16.924;2022-12-16T08:37:19;141.65;;;79.32;;
49458;SDS011;35354;51.296;16.924;2022-12-16T08:40:03;133.77;;;79.78;;
49458;SDS011;35354;51.296;16.924;2022-12-16T08:42:48;134.77;;;76.78;;
49458;SDS011;35354;51.296;16.924;2022-12-16T08:45:32;144.90;;;81.05;;
49458;SDS011;35354;51.296;16.924;2022-12-16T08:48:16;136.32;;;78.97;;
49458;SDS011;35354;51.296;16.924;2022-12-16T08:51:03;138.50;;;81.53;;
49458;SDS011;35354;51.296;16.924;2022-12-16T08:53:48;137.85;;;79.68;;
49458;SDS011;35354;51.296;16.924;2022-12-16T08:56:32;145.50;;;84.20;;
49458;SDS011;35354;51.296;16.924;2022-12-16T08:59:16;144.32;;;81.40;;
49458;SDS011;35354;51.296;16.924;2022-12-16T09:02:00;145.18;;;83.35;;
49458;SDS011;35354;51.296;16.924;2022-12-16T09:04:44;165.02;;;93.13;;
49458;SDS011;35354;51.296;16.924;2022-12-16T09:07:28;147.38;;;85.80;;
49458;SDS011;35354;51.296;16.924;2022-12-16T09:10:12;164.35;;;100.00;;
49458;SDS011;35354;51.296;16.924;2022-12-16T09:13:09;148.88;;;89.88;;
49458;SDS011;35354;51.296;16.924;2022-12-16T09:15:54;141.68;;;79.32;;
49458;SDS011;35354;51.296;16.924;2022-12-16T09:18:38;137.10;;;78.88;;
49458;SDS011;35354;51.296;16.924;2022-12-16T09:21:22;131.18;;;74.95;;
49458;SDS011;35354;51.296;16.924;2022-12-16T09:24:06;137.10;;;79.32;;
49458;SDS011;35354;51.296;16.924;2022-12-16T09:26:50;128.75;;;76.97;;
49458;SDS011;35354;51.296;16.924;2022-12-16T09:29:34;140.38;;;79.60;;
49458;SDS011;35354;51.296;16.924;2022-12-16T09:32:18;139.18;;;80.28;;
49458;SDS011;35354;51.296;16.924;2022-12-16T09:35:02;146.75;;;83.55;;
49458;SDS011;35354;51.296;16.924;2022-12-16T09:37:46;148.95;;;84.32;;
49458;SDS011;35354;51.296;16.924;2022-12-16T09:40:30;143.27;;;80.25;;
49458;SDS011;35354;51.296;16.924;2022-12-16T09:43:24;153.82;;;87.93;;
49458;SDS011;35354;51.296;16.924;2022-12-16T09:49:42;151.45;;;81.47;;
49458;SDS011;35354;51.296;16.924;2022-12-16T09:52:55;136.77;;;75.05;;
49458;SDS011;35354;51.296;16.924;2022-12-16T09:55:43;145.35;;;78.57;;
49458;SDS011;35354;51.296;16.924;2022-12-16T09:58:34;148.55;;;82.15;;
49458;SDS011;35354;51.296;16.924;2022-12-16T10:01:23;147.57;;;81.85;;
49458;SDS011;35354;51.296;16.924;2022-12-16T10:04:09;150.32;;;82.13;;
49458;SDS011;35354;51.296;16.924;2022-12-16T10:06:56;151.25;;;81.00;;
49458;SDS011;35354;51.296;16.924;2022-12-16T10:16:05;140.65;;;80.53;;
49458;SDS011;35354;51.296;16.924;2022-12-16T10:22:01;138.52;;;80.25;;
49458;SDS011;35354;51.296;16.924;2022-12-16T10:24:59;142.98;;;80.88;;
49458;SDS011;35354;51.296;16.924;2022-12-16T10:27:56;141.90;;;78.55;;
49458;SDS011;35354;51.296;16.924;2022-12-16T10:30:53;147.27;;;82.50;;
49458;SDS011;35354;51.296;16.924;2022-12-16T10:33:37;143.82;;;80.32;;
49458;SDS011;35354;51.296;16.924;2022-12-16T10:36:38;151.20;;;83.03;;
49458;SDS011;35354;51.296;16.924;2022-12-16T10:39:35;153.27;;;85.10;;
49458;SDS011;35354;51.296;16.924;2022-12-16T10:42:29;145.00;;;84.47;;
49458;SDS011;35354;51.296;16.924;2022-12-16T10:45:18;151.48;;;80.70;;
49458;SDS011;35354;51.296;16.924;2022-12-16T10:48:07;145.73;;;82.35;;
49458;SDS011;35354;51.296;16.924;2022-12-16T10:50:53;149.32;;;83.45;;
49458;SDS011;35354;51.296;16.924;2022-12-16T10:53:37;153.02;;;83.57;;
49458;SDS011;35354;51.296;16.924;2022-12-16T10:59:35;159.77;;;88.22;;
49458;SDS011;35354;51.296;16.924;2022-12-16T11:02:22;154.20;;;85.95;;
49458;SDS011;35354;51.296;16.924;2022-12-16T11:08:34;164.43;;;92.07;;
49458;SDS011;35354;51.296;16.924;2022-12-16T11:11:20;155.55;;;86.75;;
49458;SDS011;35354;51.296;16.924;2022-12-16T11:14:14;157.18;;;91.45;;
49458;SDS011;35354;51.296;16.924;2022-12-16T11:17:11;151.95;;;83.60;;
49458;SDS011;35354;51.296;16.924;2022-12-16T11:20:05;146.57;;;82.05;;
49458;SDS011;35354;51.296;16.924;2022-12-16T11:23:05;160.98;;;85.50;;
49458;SDS011;35354;51.296;16.924;2022-12-16T11:26:02;159.48;;;87.55;;
49458;SDS011;35354;51.296;16.924;2022-12-16T11:31:49;144.07;;;80.53;;
49458;SDS011;35354;51.296;16.924;2022-12-16T11:34:37;155.68;;;87.93;;
49458;SDS011;35354;51.296;16.924;2022-12-16T11:37:22;157.82;;;85.38;;
49458;SDS011;35354;51.296;16.924;2022-12-16T11:40:11;147.18;;;84.85;;
49458;SDS011;35354;51.296;16.924;2022-12-16T11:42:57;151.85;;;87.30;;
49458;SDS011;35354;51.296;16.924;2022-12-16T11:45:44;167.43;;;94.10;;
49458;SDS011;35354;51.296;16.924;2022-12-16T11:48:41;147.35;;;81.82;;
49458;SDS011;35354;51.296;16.924;2022-12-16T11:51:31;142.23;;;79.43;;
49458;SDS011;35354;51.296;16.924;2022-12-16T11:54:22;150.88;;;81.65;;
49458;SDS011;35354;51.296;16.924;2022-12-16T11:57:21;156.63;;;88.30;;
49458;SDS011;35354;51.296;16.924;2022-12-16T12:00:11;154.32;;;86.50;;
49458;SDS011;35354;51.296;16.924;2022-12-16T12:03:00;159.38;;;89.63;;
49458;SDS011;35354;51.296;16.924;2022-12-16T12:06:10;178.40;;;101.38;;
49458;SDS011;35354;51.296;16.924;2022-12-16T12:15:02;182.60;;;105.80;;
49458;SDS011;35354;51.296;16.924;2022-12-16T12:18:20;160.88;;;92.07;;
49458;SDS011;35354;51.296;16.924;2022-12-16T12:21:17;181.90;;;102.60;;
49458;SDS011;35354;51.296;16.924;2022-12-16T12:27:09;170.27;;;92.88;;
49458;SDS011;35354;51.296;16.924;2022-12-16T12:35:44;171.15;;;93.05;;
49458;SDS011;35354;51.296;16.924;2022-12-16T12:38:35;162.85;;;89.57;;
49458;SDS011;35354;51.296;16.924;2022-12-16T12:41:40;158.75;;;88.60;;
49458;SDS011;35354;51.296;16.924;2022-12-16T12:48:22;153.57;;;88.00;;
49458;SDS011;35354;51.296;16.924;2022-12-16T12:54:03;171.93;;;94.43;;
49458;SDS011;35354;51.296;16.924;2022-12-16T12:56:57;166.73;;;94.20;;
49458;SDS011;35354;51.296;16.924;2022-12-16T12:59:45;184.13;;;100.65;;
49458;SDS011;35354;51.296;16.924;2022-12-16T13:02:40;161.68;;;93.25;;
49458;SDS011;35354;51.296;16.924;2022-12-16T13:05:29;179.50;;;103.65;;
49458;SDS011;35354;51.296;16.924;2022-12-16T13:11:22;171.45;;;97.30;;
49458;SDS011;35354;51.296;16.924;2022-12-16T13:20:00;167.75;;;95.82;;
49458;SDS011;35354;51.296;16.924;2022-12-16T13:22:45;174.43;;;97.32;;
49458;SDS011;35354;51.296;16.924;2022-12-16T13:28:23;175.70;;;95.68;;
49458;SDS011;35354;51.296;16.924;2022-12-16T13:31:15;173.52;;;95.00;;
49458;SDS011;35354;51.296;16.924;2022-12-16T13:34:02;168.38;;;94.03;;
49458;SDS011;35354;51.296;16.924;2022-12-16T13:36:53;171.52;;;93.68;;
49458;SDS011;35354;51.296;16.924;2022-12-16T13:39:39;176.63;;;95.63;;
49458;SDS011;35354;51.296;16.924;2022-12-16T13:45:28;170.07;;;95.82;;
49458;SDS011;35354;51.296;16.924;2022-12-16T13:48:27;175.88;;;97.07;;
49458;SDS011;35354;51.296;16.924;2022-12-16T13:54:20;180.38;;;97.55;;
49458;SDS011;35354;51.296;16.924;2022-12-16T13:57:10;167.77;;;92.93;;
49458;SDS011;35354;51.296;16.924;2022-12-16T13:59:57;176.38;;;93.88;;
49458;SDS011;35354;51.296;16.924;2022-12-16T14:02:43;176.13;;;96.72;;
49458;SDS011;35354;51.296;16.924;2022-12-16T14:05:28;177.35;;;98.93;;
49458;SDS011;35354;51.296;16.924;2022-12-16T14:08:16;173.77;;;93.53;;
49458;SDS011;35354;51.296;16.924;2022-12-16T14:11:04;180.05;;;96.55;;
49458;SDS011;35354;51.296;16.924;2022-12-16T14:17:00;165.55;;;91.43;;
49458;SDS011;35354;51.296;16.924;2022-12-16T14:20:02;165.48;;;90.75;;
49458;SDS011;35354;51.296;16.924;2022-12-16T14:22:54;183.02;;;94.78;;
49458;SDS011;35354;51.296;16.924;2022-12-16T14:26:08;174.30;;;92.72;;
49458;SDS011;35354;51.296;16.924;2022-12-16T14:28:54;169.13;;;89.82;;
49458;SDS011;35354;51.296;16.924;2022-12-16T14:31:39;166.95;;;90.95;;
49458;SDS011;35354;51.296;16.924;2022-12-16T14:34:25;171.05;;;91.72;;
49458;SDS011;35354;51.296;16.924;2022-12-16T14:37:14;185.23;;;91.97;;
49458;SDS011;35354;51.296;16.924;2022-12-16T14:39:58;175.00;;;91.45;;
49458;SDS011;35354;51.296;16.924;2022-12-16T14:42:42;170.65;;;93.32;;
49458;SDS011;35354;51.296;16.924;2022-12-16T14:45:28;175.32;;;94.10;;
49458;SDS011;35354;51.296;16.924;2022-12-16T14:57:19;177.70;;;91.38;;
49458;SDS011;35354;51.296;16.924;2022-12-16T15:06:01;182.88;;;93.47;;
49458;SDS011;35354;51.296;16.924;2022-12-16T15:08:51;187.80;;;96.93;;
49458;SDS011;35354;51.296;16.924;2022-12-16T15:11:39;190.52;;;99.78;;
49458;SDS011;35354;51.296;16.924;2022-12-16T15:14:27;188.75;;;96.70;;
49458;SDS011;35354;51.296;16.924;2022-12-16T15:17:25;181.75;;;93.43;;
49458;SDS011;35354;51.296;16.924;2022-12-16T15:20:24;197.73;;;107.18;;
49458;SDS011;35354;51.296;16.924;2022-12-16T15:23:12;173.43;;;93.70;;
49458;SDS011;35354;51.296;16.924;2022-12-16T15:26:01;171.48;;;93.40;;
49458;SDS011;35354;51.296;16.924;2022-12-16T15:28:46;183.77;;;99.00;;
49458;SDS011;35354;51.296;16.924;2022-12-16T15:31:34;185.23;;;101.90;;
49458;SDS011;35354;51.296;16.924;2022-12-16T15:34:30;180.60;;;97.45;;
49458;SDS011;35354;51.296;16.924;2022-12-16T15:40:17;174.77;;;97.93;;
49458;SDS011;35354;51.296;16.924;2022-12-16T15:43:04;178.95;;;95.13;;
49458;SDS011;35354;51.296;16.924;2022-12-16T15:45:48;174.65;;;95.80;;
49458;SDS011;35354;51.296;16.924;2022-12-16T15:48:33;173.48;;;93.57;;
49458;SDS011;35354;51.296;16.924;2022-12-16T15:54:13;175.80;;;99.00;;
49458;SDS011;35354;51.296;16.924;2022-12-16T15:56:59;176.32;;;95.50;;
49458;SDS011;35354;51.296;16.924;2022-12-16T16:00:16;186.90;;;102.15;;
49458;SDS011;35354;51.296;16.924;2022-12-16T16:03:00;187.88;;;97.30;;
49458;SDS011;35354;51.296;16.924;2022-12-16T16:05:44;203.70;;;116.03;;
49458;SDS011;35354;51.296;16.924;2022-12-16T16:08:35;200.55;;;103.53;;
49458;SDS011;35354;51.296;16.924;2022-12-16T16:11:19;197.23;;;104.70;;
49458;SDS011;35354;51.296;16.924;2022-12-16T16:14:03;187.43;;;102.53;;
49458;SDS011;35354;51.296;16.924;2022-12-16T16:16:47;186.50;;;103.13;;
49458;SDS011;35354;51.296;16.924;2022-12-16T16:19:31;215.18;;;112.57;;
49458;SDS011;35354;51.296;16.924;2022-12-16T16:22:16;198.77;;;109.70;;
49458;SDS011;35354;51.296;16.924;2022-12-16T16:25:01;210.30;;;112.03;;
49458;SDS011;35354;51.296;16.924;2022-12-16T16:27:45;200.82;;;107.60;;
49458;SDS011;35354;51.296;16.924;2022-12-16T16:30:29;198.90;;;108.13;;
49458;SDS011;35354;51.296;16.924;2022-12-16T16:33:13;195.73;;;107.47;;
49458;SDS011;35354;51.296;16.924;2022-12-16T16:35:57;193.32;;;104.13;;
49458;SDS011;35354;51.296;16.924;2022-12-16T16:38:41;204.40;;;113.70;;
49458;SDS011;35354;51.296;16.924;2022-12-16T16:41:25;197.68;;;109.97;;
49458;SDS011;35354;51.296;16.924;2022-12-16T16:44:09;191.40;;;104.70;;
49458;SDS011;35354;51.296;16.924;2022-12-16T16:46:53;191.63;;;104.28;;
49458;SDS011;35354;51.296;16.924;2022-12-16T16:49:41;204.63;;;111.82;;
49458;SDS011;35354;51.296;16.924;2022-12-16T16:52:28;193.60;;;107.03;;
49458;SDS011;35354;51.296;16.924;2022-12-16T16:55:20;187.50;;;102.57;;
49458;SDS011;35354;51.296;16.924;2022-12-16T16:58:18;207.73;;;108.47;;
49458;SDS011;35354;51.296;16.924;2022-12-16T17:01:07;195.48;;;106.82;;
49458;SDS011;35354;51.296;16.924;2022-12-16T17:03:56;197.43;;;107.95;;
49458;SDS011;35354;51.296;16.924;2022-12-16T17:06:40;198.77;;;108.45;;
49458;SDS011;35354;51.296;16.924;2022-12-16T17:09:24;182.90;;;102.78;;
49458;SDS011;35354;51.296;16.924;2022-12-16T17:12:13;191.77;;;106.25;;
49458;SDS011;35354;51.296;16.924;2022-12-16T17:15:10;200.85;;;106.30;;
49458;SDS011;35354;51.296;16.924;2022-12-16T17:17:59;199.75;;;108.78;;
49458;SDS011;35354;51.296;16.924;2022-12-16T17:20:43;197.95;;;108.13;;